Terminal Aerodrome Forecast
Issued by NWS

Home | Current Version | Previous Version | Text Only | Print | Product List | Glossary On
Versions: 1 2 3 4 5 6 7 8 9 10 11 12 13
629
FTUS46 KMFR 130544
TAFLMT
TAF
KLMT 130544Z 1306/1406 25003KT P6SM BKN050
     FM130900 VRB03KT P6SM BKN030
     FM131300 00000KT P6SM BKN015
     FM131900 24003KT P6SM SCT015=

USA.gov is the U.S. government's official web portal to all federal, state and local government web resources and services.